Hauptseite
METAR-TAF:

METAR-TAF

Flughäfen :

Flughafen Kunming-Changshui

Kunming, China

Breite: 25-01N, Länge: 102-41E, Höhe: 1892 m

Beobachtung

Neuester Wetterbericht von vor 41 Minuten, um 09:00 UTC
Wind 6 kt aus Süd/Südwest
Temperatur 20°C
Luftfeuchtigkeit 73%
Luftdruck 1022 hPa
Sichtweite 10 km oder mehr
Leicht bewölkt in der Höhe von 2600 ft, Towering cumulus.
Aufgelockert bewölkt in der Höhe von 2600 ft

METAR: ZPPP 190900Z 20003MPS 9999 FEW026TCU SCT026 20/15 Q1022 NOSIG

Zeit: 17:41 (09:41 UTC)

Prognose

Neuester Wetterbericht von vor 8 Stunden und 32 Minuten, um 01:09 UTC
Gültige Prognose vom 19 um 06 UTC bis 20 um 06 UTC
Wind 8 kt aus Süd/Südwest
Sichtweite 10 km oder mehr
Aufgelockert bewölkt in der Höhe von 2000 ft
Durchbrochene Bewölkung in der Höhe von 3300 ft

TAF: ZPPP 190109Z 1906/2006 20004MPS 9999 SCT020 BKN033 TX24/1908Z TN13/1923Z

Wetterbeobachtungen und Prognosen von mehr als 4000 Flughäfen (METAR und TAF Bericht).

Die verfügbaren Stationen werden durch gelbe und rote Markierungen auf der Karte dargestellt.

Führen Sie die Maus auf sie, um den Namen der Station zu sehen.

Darauf klicken, um die Beobachtung von Wetterbeobachtungen und Prognosen zu sehen.

Um die Karte zu ändern : klicken Sie auf den grünen Tasten mit einem schwarzen Kreuz Zum Vergrößern, auf den grünen Button mit einem Gedankenstrich zu verkleinern, oder auf die grünen Pfeile für benachbarte Karten.


METAR-TAF: